createdAt,value
2023-05-05T00:03:45.019Z,100.00
2023-05-05T00:08:46.905Z,100.00
2023-05-05T00:13:48.879Z,100.00
2023-05-05T00:18:50.364Z,100.00
2023-05-05T00:23:52.069Z,100.00
2023-05-05T00:28:53.510Z,100.00
2023-05-05T00:33:55.056Z,100.00
2023-05-05T00:38:56.504Z,100.00
2023-05-05T00:43:57.928Z,100.00
2023-05-05T00:49:00.784Z,100.00
2023-05-05T00:54:02.320Z,100.00
2023-05-05T00:59:03.798Z,100.00
2023-05-05T01:04:05.274Z,100.00
2023-05-05T01:09:24.713Z,100.00
2023-05-05T01:14:39.856Z,100.00
2023-05-05T01:20:08.667Z,100.00
2023-05-05T01:25:44.329Z,100.00
2023-05-05T01:31:10.684Z,100.00
2023-05-05T01:36:22.761Z,100.00
2023-05-05T01:41:47.068Z,100.00
2023-05-05T01:46:51.965Z,100.00
2023-05-05T01:51:55.682Z,100.00
2023-05-05T01:56:58.623Z,100.00
2023-05-05T02:02:02.215Z,100.00
2023-05-05T02:07:05.108Z,100.00
2023-05-05T02:12:08.114Z,100.00
2023-05-05T02:17:11.376Z,100.00
2023-05-05T02:22:12.860Z,100.00
2023-05-05T02:27:17.649Z,100.00
2023-05-05T02:32:34.698Z,100.00
2023-05-05T02:37:38.326Z,100.00
2023-05-05T02:42:42.984Z,100.00
2023-05-05T02:47:46.473Z,100.00
2023-05-05T02:52:48.537Z,100.00
2023-05-05T02:58:06.142Z,100.00
2023-05-05T03:03:22.308Z,100.00
2023-05-05T03:08:52.244Z,100.00
2023-05-05T03:14:15.047Z,100.00
2023-05-05T03:19:20.060Z,100.00
2023-05-05T03:24:27.085Z,100.00
2023-05-05T03:29:36.112Z,100.00
2023-05-05T03:34:39.315Z,100.00
2023-05-05T03:39:40.941Z,100.00
2023-05-05T03:44:44.326Z,100.00
2023-05-05T03:49:46.029Z,100.00
2023-05-05T03:54:47.582Z,100.00
2023-05-05T03:59:49.216Z,100.00
2023-05-05T04:04:50.963Z,100.00
2023-05-05T04:09:52.614Z,100.00
2023-05-05T04:14:54.850Z,100.00
2023-05-05T04:19:56.493Z,100.00
2023-05-05T04:24:58.001Z,100.00
2023-05-05T04:29:59.748Z,100.00
2023-05-05T04:35:01.544Z,100.00
2023-05-05T04:40:03.401Z,100.00
2023-05-05T04:45:08.394Z,100.00
2023-05-05T04:50:10.752Z,100.00
2023-05-05T04:55:13.604Z,100.00
2023-05-05T05:00:15.325Z,100.00
2023-05-05T05:05:16.879Z,100.00
2023-05-05T05:10:18.975Z,100.00
2023-05-05T05:15:21.849Z,100.00
2023-05-05T05:20:23.402Z,100.00
2023-05-05T05:25:25.073Z,100.00
2023-05-05T05:30:27.249Z,100.00
2023-05-05T05:35:29.166Z,100.00
2023-05-05T05:40:30.766Z,100.00
2023-05-05T05:45:32.379Z,100.00
2023-05-05T05:50:34.086Z,89.77
2023-05-05T05:55:35.598Z,88.31
2023-05-05T06:00:37.221Z,85.45
2023-05-05T06:05:42.595Z,100.00
2023-05-05T06:10:44.960Z,100.00
2023-05-05T06:15:50.881Z,100.00
2023-05-05T06:20:52.903Z,100.00
2023-05-05T06:25:57.658Z,100.00
2023-05-05T06:30:59.118Z,94.26
2023-05-05T06:36:00.655Z,87.89
2023-05-05T06:41:02.172Z,85.78
2023-05-05T06:46:03.708Z,82.35
2023-05-05T06:51:05.205Z,100.00
2023-05-05T06:56:07.842Z,100.00
2023-05-05T07:01:09.646Z,100.00
2023-05-05T07:06:11.127Z,100.00
2023-05-05T07:11:12.656Z,100.00
2023-05-05T07:16:14.141Z,100.00
2023-05-05T07:21:15.612Z,100.00
2023-05-05T07:26:17.105Z,100.00
2023-05-05T07:31:18.721Z,100.00
2023-05-05T07:36:20.319Z,100.00
2023-05-05T07:41:21.744Z,100.00
2023-05-05T07:46:23.226Z,100.00
2023-05-05T07:51:24.813Z,100.00
2023-05-05T07:56:26.232Z,100.00
2023-05-05T08:01:27.966Z,100.00
2023-05-05T08:06:30.876Z,100.00
2023-05-05T08:11:32.319Z,96.03
2023-05-05T08:16:33.883Z,81.04
2023-05-05T08:21:35.451Z,89.86
2023-05-05T08:26:36.899Z,89.34
2023-05-05T08:31:38.454Z,80.24
2023-05-05T08:36:39.907Z,87.76
2023-05-05T08:41:41.478Z,86.80
2023-05-05T08:46:43.227Z,87.78
2023-05-05T08:51:46.496Z,87.12
2023-05-05T08:56:50.014Z,79.30
2023-05-05T09:01:53.030Z,85.67
2023-05-05T09:06:58.148Z,86.93
2023-05-05T09:12:00.186Z,83.52
2023-05-05T09:17:03.322Z,84.25
2023-05-05T09:22:04.837Z,88.96
2023-05-05T09:27:21.666Z,87.82
2023-05-05T09:32:23.753Z,92.18
2023-05-05T09:37:31.411Z,93.00
2023-05-05T09:42:32.847Z,96.80
2023-05-05T09:47:37.549Z,94.24
2023-05-05T09:52:39.204Z,94.30
2023-05-05T09:57:40.650Z,96.12
2023-05-05T10:02:42.294Z,93.67
2023-05-05T10:07:46.175Z,90.24
2023-05-05T10:12:49.223Z,91.05
2023-05-05T10:18:06.160Z,92.02
2023-05-05T10:23:14.183Z,92.96
2023-05-05T10:28:23.021Z,91.45
2023-05-05T10:33:33.840Z,89.65
2023-05-05T10:38:35.918Z,84.98
2023-05-05T10:43:37.633Z,77.44
2023-05-05T10:48:54.550Z,78.42
2023-05-05T10:54:05.925Z,78.93
2023-05-05T10:59:38.818Z,73.72
2023-05-05T11:04:40.801Z,77.93
2023-05-05T11:09:55.178Z,77.82
2023-05-05T11:15:27.539Z,80.15
2023-05-05T11:20:35.218Z,82.87
2023-05-05T11:25:37.201Z,78.92
2023-05-05T11:31:18.664Z,78.40
2023-05-05T11:36:37.007Z,81.64
2023-05-05T11:42:10.229Z,74.82
2023-05-05T11:47:12.244Z,82.44
2023-05-05T11:52:15.119Z,80.96
2023-05-05T11:57:17.999Z,80.74
2023-05-05T12:02:20.407Z,76.76
2023-05-05T12:07:24.596Z,75.85
2023-05-05T12:12:39.425Z,79.34
2023-05-05T12:17:42.958Z,80.28
2023-05-05T12:22:44.588Z,78.04
2023-05-05T12:27:52.571Z,73.81
2023-05-05T12:33:01.550Z,76.27
2023-05-05T12:38:03.471Z,77.83
2023-05-05T12:43:04.884Z,78.06
2023-05-05T12:48:22.476Z,76.42
2023-05-05T12:53:25.225Z,73.18
2023-05-05T12:58:26.695Z,71.85
2023-05-05T13:03:28.232Z,71.75
2023-05-05T13:08:43.002Z,72.90
2023-05-05T13:13:44.436Z,74.05
2023-05-05T13:18:49.810Z,75.09
2023-05-05T13:23:51.360Z,74.24
2023-05-05T13:28:52.868Z,69.98
2023-05-05T13:33:54.478Z,68.41
2023-05-05T13:38:55.942Z,72.81
2023-05-05T13:43:57.354Z,72.45
2023-05-05T13:48:58.781Z,73.96
2023-05-05T13:54:02.793Z,71.98
2023-05-05T13:59:04.560Z,70.27
2023-05-05T14:04:06.312Z,70.22
2023-05-05T14:09:07.893Z,70.62
2023-05-05T14:14:09.336Z,71.01
2023-05-05T14:19:10.752Z,73.00
2023-05-05T14:24:12.184Z,74.08
2023-05-05T14:29:13.620Z,74.67
2023-05-05T14:34:15.016Z,75.36
2023-05-05T14:39:16.477Z,77.70
2023-05-05T14:44:17.973Z,82.27
2023-05-05T14:49:19.504Z,82.74
2023-05-05T14:54:27.853Z,84.84
2023-05-05T14:59:30.325Z,82.70
2023-05-05T15:04:31.846Z,80.61
2023-05-05T15:09:33.254Z,79.36
2023-05-05T15:14:34.738Z,79.17
2023-05-05T15:19:36.414Z,80.48
2023-05-05T15:24:37.975Z,80.98
2023-05-05T15:29:39.379Z,81.57
2023-05-05T15:34:40.828Z,81.97
2023-05-05T15:39:42.314Z,83.79
2023-05-05T15:44:43.745Z,83.12
2023-05-05T15:49:45.177Z,84.00
2023-05-05T15:54:46.704Z,88.84
2023-05-05T15:59:51.350Z,90.87
2023-05-05T16:04:52.831Z,95.63
2023-05-05T16:09:54.271Z,100.00
2023-05-05T16:14:55.950Z,100.00
2023-05-05T16:19:57.368Z,100.00
2023-05-05T16:24:58.791Z,100.00
2023-05-05T16:30:00.228Z,100.00
2023-05-05T16:35:01.679Z,100.00
2023-05-05T16:40:03.268Z,100.00
2023-05-05T16:45:05.880Z,100.00
2023-05-05T16:50:07.680Z,100.00
2023-05-05T16:55:09.573Z,100.00
2023-05-05T17:00:11.591Z,100.00
2023-05-05T17:05:13.237Z,100.00
2023-05-05T17:10:14.847Z,100.00
2023-05-05T17:15:16.311Z,100.00
2023-05-05T17:20:17.746Z,100.00
2023-05-05T17:25:19.230Z,100.00
2023-05-05T17:30:20.949Z,100.00
2023-05-05T17:35:22.410Z,100.00
2023-05-05T17:40:24.798Z,100.00
2023-05-05T17:45:26.312Z,100.00
2023-05-05T17:50:27.856Z,100.00
2023-05-05T17:55:29.316Z,100.00
2023-05-05T18:00:30.739Z,100.00
2023-05-05T18:05:32.171Z,100.00
2023-05-05T18:10:33.635Z,100.00
2023-05-05T18:15:35.159Z,100.00
2023-05-05T18:20:36.620Z,100.00
2023-05-05T18:25:38.104Z,100.00
2023-05-05T18:30:39.584Z,100.00
2023-05-05T18:35:41.017Z,100.00
2023-05-05T18:40:42.434Z,100.00
2023-05-05T18:45:43.937Z,100.00
2023-05-05T18:50:45.371Z,100.00
2023-05-05T18:55:46.762Z,100.00
2023-05-05T19:00:48.242Z,100.00
2023-05-05T19:05:49.663Z,100.00
2023-05-05T19:10:51.114Z,100.00
2023-05-05T19:15:54.397Z,100.00
2023-05-05T19:20:55.937Z,100.00
2023-05-05T19:25:57.650Z,100.00
2023-05-05T19:30:59.425Z,100.00
2023-05-05T19:36:01.722Z,100.00
2023-05-05T19:41:03.194Z,100.00
2023-05-05T19:46:04.901Z,100.00
2023-05-05T19:51:06.448Z,100.00
2023-05-05T19:56:08.036Z,100.00
2023-05-05T20:01:09.542Z,100.00
2023-05-05T20:06:11.132Z,100.00
2023-05-05T20:11:16.268Z,100.00
2023-05-05T20:16:18.471Z,100.00
2023-05-05T20:21:19.999Z,100.00
2023-05-05T20:26:21.480Z,100.00
2023-05-05T20:31:22.998Z,100.00
2023-05-05T20:36:24.562Z,100.00
2023-05-05T20:41:26.006Z,100.00
2023-05-05T20:46:27.564Z,100.00
2023-05-05T20:51:29.020Z,100.00
2023-05-05T20:56:30.457Z,100.00
2023-05-05T21:01:31.873Z,100.00
2023-05-05T21:06:33.369Z,100.00
2023-05-05T21:11:34.792Z,100.00
2023-05-05T21:16:36.205Z,100.00
2023-05-05T21:21:37.664Z,100.00
2023-05-05T21:26:43.503Z,100.00
2023-05-05T21:31:44.896Z,100.00
2023-05-05T21:36:46.387Z,100.00
2023-05-05T21:41:47.828Z,100.00
2023-05-05T21:46:49.292Z,100.00
2023-05-05T21:51:50.769Z,100.00
2023-05-05T21:56:52.687Z,100.00
2023-05-05T22:01:54.285Z,100.00
2023-05-05T22:06:55.894Z,100.00
2023-05-05T22:11:57.492Z,100.00
2023-05-05T22:16:59.074Z,100.00
2023-05-05T22:22:00.526Z,100.00
2023-05-05T22:27:01.984Z,100.00
2023-05-05T22:32:03.447Z,100.00
2023-05-05T22:37:04.923Z,100.00
2023-05-05T22:42:06.621Z,100.00
2023-05-05T22:47:08.103Z,100.00
2023-05-05T22:52:09.727Z,100.00
2023-05-05T22:57:11.144Z,100.00
2023-05-05T23:02:12.891Z,100.00
2023-05-05T23:07:14.359Z,100.00
2023-05-05T23:12:16.875Z,100.00
2023-05-05T23:17:18.376Z,100.00
2023-05-05T23:22:19.870Z,100.00
2023-05-05T23:27:21.314Z,100.00
2023-05-05T23:32:22.770Z,100.00
2023-05-05T23:37:24.211Z,100.00
2023-05-05T23:42:25.658Z,100.00
2023-05-05T23:47:27.137Z,100.00
2023-05-05T23:52:28.779Z,100.00
2023-05-05T23:57:30.235Z,100.00
